Jacksonville Naval Air Station
KNIP : now visible

Airfield :











YOU CAN JOIN US ON...

 
LOGIN :

Register | Disclaimer

   EN    FR    IT 

 









Legend :    VFR   Marginal VFR   IFR   Intensive IFR   Very Intensive IFR
Visi :
Ceiling :
>= 8 km
>= 3000ft
5 to 8 km
1000 to 3000 ft
1500m to 5 km
500 to 1000 ft
800 to 1500m
200 to 500 ft
< 800m
< 200 ft
Symbols :   Thunderstorms  Fog  Heavy snow  Heavy precipitations  Wind > 20 kt






- Airport Elevation : 21 ft


KNIP - Jacksonville Naval Air Station

CURRENT METAR :
  • 050753Z 18004KT 7SM FEW250 14/14 A3016 RMK AO2 SLP208 T01390139 $

EXPIRED METARs :
  • 050653Z 00000KT 5SM BR FEW250 14/14 A3016 RMK AO2 SLP209 T01440144 $
  • 050553Z 19004KT 6SM BR BKN250 15/15 A3017 RMK AO2 SLP211 T01500150 10178 20144 58001 $

TAF TAF KNIP
Valid from the 05 at 07:00 until the 06 at 07:00 UTC


0507/0607 VRB05KT 9999 BKN250 QNH3007INS
TEMPO 0507/0513 1600 BR
BECMG 0513/0515 VRB05KT 9999 NSW FEW030 QNH3005INS T08/0512Z T17/0522Z FN00240
KZJX FIR / North America



MET'MAP, your aeronautical weather chart ! - Copyright ORBIFLY December 2007 - Disclaimer

ORBIFLY MET'MAP TEAM :

Programming & Development : Alexandra Zaïnal
Concept & original design : Baudouin d'Aumeries
Assistance for programming : Marc-Olivier Méhu
Technical & hardware support : Manuel Goepfert

Contact : metmap@orbifly.com




SOURCES & CREDITS :

   NOAA       Earth
Advisory